Time;durP1;ratioP1;P1;durP2;ratioP2;P2;SDS_P1;SDS_P2;PMS_P1;PMS_P2;Temp;Humidity;BMP_temperature;BMP_pressure;BME280_temperature;BME280_humidity;BME280_pressure;Samples;Min_cycle;Max_cycle;Signal;HPM_P1;HPM_P2
2024/02/07 00:02:02;;;;;;;22.30;14.38;;;;;;;;;;4994909;28;20029;-81
2024/02/07 00:04:31;;;;;;;20.63;12.23;;;;;;;;;;5009322;28;20048;-81
2024/02/07 00:06:57;;;;;;;23.48;15.02;;;;;;;;;;4990943;28;20033;-80
2024/02/07 00:09:25;;;;;;;19.40;12.32;;;;;;;;;;4992633;28;20048;-81
2024/02/07 00:11:51;;;;;;;20.88;13.77;;;;;;;;;;5006976;28;20048;-81
2024/02/07 00:14:18;;;;;;;;;;;;;;;;;;4997347;28;21779;-81
2024/02/07 00:16:45;;;;;;;20.65;12.27;;;;;;;;;;4996806;28;19970;-80
2024/02/07 00:19:12;;;;;;;22.60;14.63;;;;;;;;;;5015976;28;20033;-80
2024/02/07 00:21:40;;;;;;;21.80;13.57;;;;;;;;;;5014515;28;20021;-80
2024/02/07 00:24:06;;;;;;;21.58;12.15;;;;;;;;;;5000122;28;20032;-80
2024/02/07 00:26:37;;;;;;;17.77;11.48;;;;;;;;;;4994375;28;20052;-80
2024/02/07 00:29:04;;;;;;;16.60;10.43;;;;;;;;;;5018032;28;20116;-79
2024/02/07 00:31:30;;;;;;;19.27;12.10;;;;;;;;;;4977366;28;20700;-80
2024/02/07 00:33:58;;;;;;;24.88;14.68;;;;;;;;;;5015720;28;20037;-81
2024/02/07 00:36:24;;;;;;;20.83;12.80;;;;;;;;;;5017229;28;20461;-82
2024/02/07 00:38:51;;;;;;;17.95;11.82;;;;;;;;;;5015899;28;20038;-80
2024/02/07 00:41:22;;;;;;;17.98;11.25;;;;;;;;;;5016354;28;20033;-80
2024/02/07 00:43:53;;;;;;;17.38;10.50;;;;;;;;;;5010191;28;20032;-80
2024/02/07 00:46:20;;;;;;;18.42;10.95;;;;;;;;;;4998046;28;20036;-80
2024/02/07 00:48:47;;;;;;;24.10;12.98;;;;;;;;;;5012026;28;20521;-80
2024/02/07 00:51:13;;;;;;;19.60;13.55;;;;;;;;;;4996703;28;20110;-80
2024/02/07 00:53:40;;;;;;;16.70;11.00;;;;;;;;;;4992057;28;20071;-80
2024/02/07 00:56:06;;;;;;;17.65;11.02;;;;;;;;;;5012774;28;20121;-80
2024/02/07 00:58:34;;;;;;;18.95;11.65;;;;;;;;;;5012452;28;20037;-81
2024/02/07 01:01:00;;;;;;;18.88;9.95;;;;;;;;;;4994320;28;20037;-80
2024/02/07 01:03:26;;;;;;;;;;;;;;;;;;4998630;28;20041;-81
2024/02/07 01:05:52;;;;;;;17.02;11.25;;;;;;;;;;5009816;28;19913;-80
2024/02/07 01:08:19;;;;;;;23.85;12.85;;;;;;;;;;5016544;28;20029;-81
2024/02/07 01:10:46;;;;;;;24.42;13.85;;;;;;;;;;4996344;28;20041;-81
2024/02/07 01:13:13;;;;;;;21.42;12.20;;;;;;;;;;5001455;28;20623;-81
2024/02/07 01:15:39;;;;;;;22.50;13.75;;;;;;;;;;5016605;28;20037;-80
2024/02/07 01:18:06;;;;;;;21.73;14.50;;;;;;;;;;5020461;28;20055;-81
2024/02/07 01:20:33;;;;;;;23.98;17.35;;;;;;;;;;5012347;28;20041;-80
2024/02/07 01:23:00;;;;;;;25.50;17.55;;;;;;;;;;5013738;28;20053;-81
2024/02/07 01:25:26;;;;;;;25.25;19.35;;;;;;;;;;4993754;28;20789;-80
2024/02/07 01:27:54;;;;;;;25.65;17.48;;;;;;;;;;4996542;28;20485;-81
2024/02/07 01:30:21;;;;;;;22.23;18.05;;;;;;;;;;5015569;28;20197;-81
2024/02/07 01:32:50;;;;;;;22.65;15.23;;;;;;;;;;5014832;28;20491;-81
2024/02/07 01:35:16;;;;;;;22.58;15.95;;;;;;;;;;4991418;28;20037;-81
2024/02/07 01:37:43;;;;;;;23.48;17.00;;;;;;;;;;5013084;28;20592;-81
2024/02/07 01:40:12;;;;;;;22.48;14.63;;;;;;;;;;5012157;28;20160;-81
2024/02/07 01:42:40;;;;;;;23.35;15.32;;;;;;;;;;4983823;28;20037;-81
2024/02/07 01:45:10;;;;;;;21.45;14.07;;;;;;;;;;5013994;28;20063;-81
2024/02/07 01:47:37;;;;;;;24.63;16.77;;;;;;;;;;4995040;28;20031;-82
2024/02/07 01:50:03;;;;;;;21.23;14.77;;;;;;;;;;5015240;28;20536;-81
2024/02/07 01:52:35;;;;;;;21.17;14.77;;;;;;;;;;4979767;28;20737;-81
2024/02/07 01:55:05;;;;;;;21.17;14.07;;;;;;;;;;5015951;28;20068;-81
2024/02/07 01:57:32;;;;;;;19.88;12.60;;;;;;;;;;5012612;28;20508;-81
2024/02/07 02:00:00;;;;;;;18.23;12.70;;;;;;;;;;4990688;28;20037;-81
2024/02/07 02:02:27;;;;;;;20.13;12.40;;;;;;;;;;5017415;28;20025;-81
2024/02/07 02:04:53;;;;;;;19.25;12.25;;;;;;;;;;4990728;28;20026;-82
2024/02/07 02:07:19;;;;;;;;;;;;;;;;;;4994278;28;20037;-82
2024/02/07 02:09:46;;;;;;;21.20;12.80;;;;;;;;;;5014491;28;20036;-81
2024/02/07 02:12:15;;;;;;;18.35;11.65;;;;;;;;;;4995917;28;20029;-81
2024/02/07 02:14:42;;;;;;;21.58;12.00;;;;;;;;;;5013048;28;20059;-82
2024/02/07 02:17:10;;;;;;;20.65;12.52;;;;;;;;;;5014397;28;20037;-83
2024/02/07 02:19:38;;;;;;;20.80;11.80;;;;;;;;;;5010007;28;20125;-80
2024/02/07 02:22:13;;;;;;;17.52;11.13;;;;;;;;;;4998520;28;20036;-83
2024/02/07 02:25:00;;;;;;;17.55;10.80;;;;;;;;;;4999294;28;20033;-81
2024/02/07 02:27:36;;;;;;;18.00;12.20;;;;;;;;;;4994928;28;20477;-84
2024/02/07 02:30:09;;;;;;;17.27;10.52;;;;;;;;;;4994683;28;20065;-80
2024/02/07 02:32:40;;;;;;;17.67;10.88;;;;;;;;;;5007056;28;20058;-83
2024/02/07 02:35:08;;;;;;;20.10;11.82;;;;;;;;;;5016243;28;20044;-81
2024/02/07 02:37:35;;;;;;;17.10;10.65;;;;;;;;;;5012992;28;20069;-82
2024/02/07 02:40:05;;;;;;;;;;;;;;;;;;4995777;28;20033;-82
2024/02/07 02:42:32;;;;;;;18.33;11.20;;;;;;;;;;5016657;28;20506;-81
2024/02/07 02:44:58;;;;;;;15.77;9.40;;;;;;;;;;4996552;28;20065;-81
2024/02/07 02:47:24;;;;;;;17.42;8.75;;;;;;;;;;5019109;28;20021;-81
2024/02/07 02:49:52;;;;;;;14.30;9.02;;;;;;;;;;5016712;28;20037;-82
2024/02/07 02:52:19;;;;;;;13.05;8.13;;;;;;;;;;5015678;28;20041;-81
2024/02/07 02:54:47;;;;;;;13.52;8.60;;;;;;;;;;5012696;28;20024;-82
2024/02/07 02:57:16;;;;;;;16.67;9.20;;;;;;;;;;5022022;28;20029;-82
2024/02/07 02:59:42;;;;;;;16.60;10.07;;;;;;;;;;4995563;28;20045;-81
2024/02/07 03:02:09;;;;;;;16.83;9.48;;;;;;;;;;5000125;28;20017;-82
2024/02/07 03:04:43;;;;;;;15.85;8.40;;;;;;;;;;5011602;28;20264;-81
2024/02/07 03:09:56;;;;;;;14.98;9.45;;;;;;;;;;5012770;28;20044;-83
2024/02/07 03:12:23;;;;;;;15.57;8.63;;;;;;;;;;5012489;28;20060;-82
2024/02/07 03:14:52;;;;;;;15.32;9.45;;;;;;;;;;4994857;28;20209;-81
2024/02/07 03:17:19;;;;;;;16.42;9.32;;;;;;;;;;4994197;28;20049;-82
2024/02/07 03:19:46;;;;;;;17.52;9.95;;;;;;;;;;4997682;28;20099;-82
2024/02/07 03:22:13;;;;;;;15.07;8.23;;;;;;;;;;5016133;28;20033;-82
2024/02/07 03:24:41;;;;;;;16.48;9.90;;;;;;;;;;5011535;28;20030;-81
2024/02/07 03:27:09;;;;;;;15.07;9.23;;;;;;;;;;4999901;28;20026;-81
2024/02/07 03:29:35;;;;;;;17.23;9.48;;;;;;;;;;5013141;28;20030;-80
2024/02/07 03:32:01;;;;;;;16.70;9.98;;;;;;;;;;4996994;28;20034;-82
2024/02/07 03:34:30;;;;;;;15.68;9.48;;;;;;;;;;4999343;28;20144;-83
2024/02/07 03:36:57;;;;;;;14.75;9.07;;;;;;;;;;5017202;28;20037;-81
2024/02/07 03:39:24;;;;;;;22.00;11.63;;;;;;;;;;4994159;28;20075;-81
2024/02/07 03:41:52;;;;;;;20.77;11.85;;;;;;;;;;4991033;28;20123;-81
2024/02/07 03:44:18;;;;;;;20.05;12.57;;;;;;;;;;4996227;28;20122;-81
2024/02/07 03:46:44;;;;;;;19.20;13.63;;;;;;;;;;5010172;28;20021;-81
2024/02/07 03:49:10;;;;;;;19.17;12.68;;;;;;;;;;4999954;28;20037;-81
2024/02/07 03:51:38;;;;;;;;;;;;;;;;;;4981415;28;20366;-82
2024/02/07 03:54:07;;;;;;;20.95;13.25;;;;;;;;;;5016748;28;20459;-80
2024/02/07 03:56:36;;;;;;;18.73;12.70;;;;;;;;;;4996616;28;20272;-81
2024/02/07 03:59:04;;;;;;;19.95;13.02;;;;;;;;;;5003898;28;20029;-81
2024/02/07 04:01:31;;;;;;;20.60;15.23;;;;;;;;;;4982089;28;20188;-81
2024/02/07 04:03:59;;;;;;;21.13;15.30;;;;;;;;;;5018002;28;20352;-81
2024/02/07 04:06:25;;;;;;;25.92;16.40;;;;;;;;;;5003082;28;20017;-81
2024/02/07 04:08:54;;;;;;;25.33;17.98;;;;;;;;;;4998130;28;20029;-81
2024/02/07 05:16:54;;;;;;;23.08;17.67;;;;;;;;;;5022171;28;20091;-81
2024/02/07 05:19:21;;;;;;;26.73;18.50;;;;;;;;;;5021981;28;20124;-81
2024/02/07 05:21:47;;;;;;;20.42;16.85;;;;;;;;;;5019948;28;20034;-81
2024/02/07 05:24:16;;;;;;;20.45;14.23;;;;;;;;;;5007653;28;20112;-81
2024/02/07 05:26:42;;;;;;;19.15;12.82;;;;;;;;;;5006488;28;20490;-81
2024/02/07 05:29:12;;;;;;;19.15;12.98;;;;;;;;;;5025322;28;20032;-80
2024/02/07 05:31:38;;;;;;;20.92;15.57;;;;;;;;;;5020206;28;20147;-82
2024/02/07 05:34:04;;;;;;;21.42;15.77;;;;;;;;;;4994237;28;20026;-81
2024/02/07 05:36:31;;;;;;;21.20;15.65;;;;;;;;;;5016410;28;20057;-81
2024/02/07 05:38:57;;;;;;;19.75;14.98;;;;;;;;;;5024277;28;20564;-81
2024/02/07 05:41:25;;;;;;;23.83;16.02;;;;;;;;;;5004222;28;20042;-81
2024/02/07 05:43:52;;;;;;;24.17;17.90;;;;;;;;;;4998642;28;20109;-81
2024/02/07 05:46:19;;;;;;;22.90;16.05;;;;;;;;;;5003919;28;20018;-80
2024/02/07 05:48:45;;;;;;;17.83;14.23;;;;;;;;;;5018261;28;20040;-83
2024/02/07 05:51:11;;;;;;;;;;;;;;;;;;4995932;28;20026;-81
2024/02/07 05:53:37;;;;;;;29.67;22.60;;;;;;;;;;4990148;28;19920;-81
2024/02/07 05:56:04;;;;;;;30.02;22.20;;;;;;;;;;4998636;28;20220;-81
2024/02/07 05:58:31;;;;;;;27.58;22.23;;;;;;;;;;5018742;28;20046;-82
2024/02/07 06:00:58;;;;;;;32.60;23.25;;;;;;;;;;5016821;28;20044;-81
2024/02/07 06:03:24;;;;;;;30.30;22.23;;;;;;;;;;5009589;28;20108;-82
2024/02/07 06:05:50;;;;;;;;;;;;;;;;;;4988501;28;20138;-81
2024/02/07 06:08:16;;;;;;;25.90;20.08;;;;;;;;;;4990976;28;19999;-81
2024/02/07 06:10:42;;;;;;;20.80;16.85;;;;;;;;;;5000619;28;20036;-82
2024/02/07 06:13:10;;;;;;;24.30;18.13;;;;;;;;;;4982911;28;20458;-81
2024/02/07 06:15:36;;;;;;;19.13;14.88;;;;;;;;;;5001612;28;20430;-80
2024/02/07 06:18:03;;;;;;;19.45;13.57;;;;;;;;;;5004579;28;20781;-81
2024/02/07 06:20:31;;;;;;;18.85;14.40;;;;;;;;;;5001017;28;20427;-82
2024/02/07 06:23:07;;;;;;;18.20;13.75;;;;;;;;;;5000537;28;20105;-81
2024/02/07 06:25:33;;;;;;;22.50;15.38;;;;;;;;;;4997928;28;20143;-81
2024/02/07 06:28:00;;;;;;;17.55;12.57;;;;;;;;;;5002960;28;20044;-82
2024/02/07 06:30:27;;;;;;;17.20;12.65;;;;;;;;;;4983019;28;20064;-82
2024/02/07 06:32:54;;;;;;;17.85;12.18;;;;;;;;;;4996714;28;20059;-80
2024/02/07 06:35:20;;;;;;;18.30;12.63;;;;;;;;;;5004271;28;20712;-81
2024/02/07 06:37:47;;;;;;;20.23;13.40;;;;;;;;;;5013537;28;20221;-81
2024/02/07 06:40:14;;;;;;;19.35;13.82;;;;;;;;;;5000395;28;20094;-81
2024/02/07 06:42:40;;;;;;;19.52;13.70;;;;;;;;;;4995053;28;20125;-81
2024/02/07 06:45:09;;;;;;;19.98;12.23;;;;;;;;;;4995445;28;20033;-81
2024/02/07 06:47:35;;;;;;;18.95;11.25;;;;;;;;;;5014403;28;20110;-81
2024/02/07 06:50:01;;;;;;;16.52;11.70;;;;;;;;;;5019966;28;20036;-81
2024/02/07 06:52:27;;;;;;;15.23;10.52;;;;;;;;;;5020992;28;20041;-82
2024/02/07 06:54:53;;;;;;;17.35;11.77;;;;;;;;;;5014317;28;20497;-81
2024/02/07 06:57:21;;;;;;;20.92;13.05;;;;;;;;;;5017231;28;20040;-81
2024/02/07 06:59:47;;;;;;;19.73;11.27;;;;;;;;;;4996115;28;20591;-82
2024/02/07 07:02:13;;;;;;;15.98;9.77;;;;;;;;;;5014464;28;20115;-83
2024/02/07 07:04:41;;;;;;;18.40;13.10;;;;;;;;;;5012980;28;20095;-83
2024/02/07 07:07:07;;;;;;;23.23;15.48;;;;;;;;;;4999096;28;20067;-81
2024/02/07 07:09:33;;;;;;;15.90;11.85;;;;;;;;;;4996431;28;20041;-80
2024/02/07 07:12:01;;;;;;;19.45;11.98;;;;;;;;;;5017041;28;20521;-80
2024/02/07 07:14:29;;;;;;;20.77;15.02;;;;;;;;;;5011438;28;20068;-83
2024/02/07 07:16:56;;;;;;;22.13;14.65;;;;;;;;;;5000877;28;20030;-81
2024/02/07 07:19:22;;;;;;;21.08;15.05;;;;;;;;;;5015127;28;20112;-81
2024/02/07 07:21:48;;;;;;;21.88;16.50;;;;;;;;;;5012942;28;20749;-80
2024/02/07 07:24:15;;;;;;;21.98;16.63;;;;;;;;;;5011026;28;20075;-81
2024/02/07 07:26:41;;;;;;;29.05;17.48;;;;;;;;;;4993836;28;20025;-80
2024/02/07 07:29:08;;;;;;;28.08;15.93;;;;;;;;;;5016772;28;20044;-79
2024/02/07 07:31:35;;;;;;;26.10;17.05;;;;;;;;;;5012944;28;20049;-79
2024/02/07 07:34:01;;;;;;;29.38;18.88;;;;;;;;;;4996229;28;20044;-81
2024/02/07 07:36:27;;;;;;;32.30;18.73;;;;;;;;;;5016766;28;20108;-80
2024/02/07 07:38:54;;;;;;;24.98;16.98;;;;;;;;;;4998781;28;20429;-80
2024/02/07 07:41:20;;;;;;;22.50;15.88;;;;;;;;;;4999779;28;20029;-80
2024/02/07 07:43:48;;;;;;;27.42;16.50;;;;;;;;;;5012320;28;20036;-79
2024/02/07 07:46:14;;;;;;;23.45;15.75;;;;;;;;;;5000742;28;20119;-81
2024/02/07 07:48:41;;;;;;;25.63;15.88;;;;;;;;;;5013038;28;20550;-79
2024/02/07 07:51:08;;;;;;;19.10;13.15;;;;;;;;;;5017871;28;20025;-81
2024/02/07 07:53:35;;;;;;;23.27;12.82;;;;;;;;;;5010486;28;20076;-81
2024/02/07 07:56:02;;;;;;;27.83;13.35;;;;;;;;;;5012303;28;20020;-82
2024/02/07 07:58:28;;;;;;;36.40;15.07;;;;;;;;;;5013647;28;20112;-81
2024/02/07 08:00:55;;;;;;;24.75;13.68;;;;;;;;;;5012582;28;20682;-82
2024/02/07 08:03:23;;;;;;;24.70;13.30;;;;;;;;;;5017468;28;20036;-81
2024/02/07 08:05:50;;;;;;;21.73;13.32;;;;;;;;;;5011821;28;20040;-82
2024/02/07 08:08:16;;;;;;;24.25;13.73;;;;;;;;;;5015426;28;20032;-81
2024/02/07 08:10:44;;;;;;;27.77;16.40;;;;;;;;;;4993009;28;20780;-81
2024/02/07 08:13:10;;;;;;;23.35;14.88;;;;;;;;;;4991555;28;20524;-82
2024/02/07 08:15:41;;;;;;;23.13;15.98;;;;;;;;;;5010187;28;20033;-81
2024/02/07 08:18:08;;;;;;;23.25;13.93;;;;;;;;;;5014885;28;20036;-81
2024/02/07 08:20:34;;;;;;;25.40;13.77;;;;;;;;;;5013978;28;20037;-81
2024/02/07 08:23:00;;;;;;;21.23;12.70;;;;;;;;;;4996467;28;20485;-82
2024/02/07 08:25:29;;;;;;;20.70;12.50;;;;;;;;;;4999060;28;20092;-82
2024/02/07 08:27:55;;;;;;;25.83;14.32;;;;;;;;;;4990923;28;20034;-82
2024/02/07 08:30:24;;;;;;;26.15;15.07;;;;;;;;;;4998285;28;20104;-82
2024/02/07 08:32:55;;;;;;;24.45;13.68;;;;;;;;;;5011946;28;20054;-82
2024/02/07 08:35:21;;;;;;;22.85;14.55;;;;;;;;;;4997553;28;20100;-81
2024/02/07 08:37:48;;;;;;;19.55;13.27;;;;;;;;;;5017919;28;20056;-82
2024/02/07 08:40:15;;;;;;;22.42;13.45;;;;;;;;;;5016659;28;20067;-81
2024/02/07 08:42:44;;;;;;;22.23;12.65;;;;;;;;;;5015172;28;20021;-82
2024/02/07 08:45:12;;;;;;;19.48;12.07;;;;;;;;;;4997448;28;20524;-82
2024/02/07 08:47:42;;;;;;;17.27;11.63;;;;;;;;;;5017024;28;20025;-82
2024/02/07 08:50:12;;;;;;;19.95;12.25;;;;;;;;;;5019433;28;20569;-79
2024/02/07 08:52:41;;;;;;;19.85;11.75;;;;;;;;;;5016751;28;20039;-82
2024/02/07 08:55:09;;;;;;;19.23;11.07;;;;;;;;;;5017572;28;20025;-82
2024/02/07 08:57:39;;;;;;;18.95;10.75;;;;;;;;;;4998374;28;20029;-82
2024/02/07 09:00:07;;;;;;;15.77;9.30;;;;;;;;;;5011397;28;20040;-82
2024/02/07 09:02:33;;;;;;;18.92;9.38;;;;;;;;;;5028531;28;20026;-81
2024/02/07 09:05:04;;;;;;;15.88;8.52;;;;;;;;;;5008907;28;20099;-82
2024/02/07 09:07:35;;;;;;;15.70;8.25;;;;;;;;;;5014063;28;20033;-82
2024/02/07 09:10:01;;;;;;;17.25;8.48;;;;;;;;;;5014780;28;20045;-82
2024/02/07 09:12:29;;;;;;;16.08;8.52;;;;;;;;;;5023011;28;20037;-82
2024/02/07 09:14:59;;;;;;;16.63;9.30;;;;;;;;;;4995707;28;20189;-81
2024/02/07 09:17:26;;;;;;;15.32;9.18;;;;;;;;;;5001751;28;20142;-81
2024/02/07 09:19:54;;;;;;;19.08;10.43;;;;;;;;;;4999817;28;20040;-82
2024/02/07 09:22:20;;;;;;;16.65;9.48;;;;;;;;;;5020303;28;20030;-81
2024/02/07 09:24:49;;;;;;;15.88;9.45;;;;;;;;;;5012741;28;20084;-81
2024/02/07 09:27:15;;;;;;;16.88;9.23;;;;;;;;;;4999807;28;20516;-82
2024/02/07 09:29:41;;;;;;;15.70;9.07;;;;;;;;;;5000827;28;20033;-82
2024/02/07 09:32:08;;;;;;;14.75;8.88;;;;;;;;;;5018512;28;20068;-83
2024/02/07 09:34:35;;;;;;;14.63;9.00;;;;;;;;;;4998778;28;20068;-83
2024/02/07 09:37:08;;;;;;;14.65;8.70;;;;;;;;;;5014407;28;20026;-83
2024/02/07 09:39:35;;;;;;;13.93;8.48;;;;;;;;;;4997207;28;20069;-82
2024/02/07 09:42:11;;;;;;;16.92;9.10;;;;;;;;;;5016234;28;20032;-81
2024/02/07 09:44:40;;;;;;;15.32;10.07;;;;;;;;;;5015543;28;20025;-81
2024/02/07 09:47:09;;;;;;;16.27;9.57;;;;;;;;;;5016199;28;20033;-83
2024/02/07 09:49:45;;;;;;;14.52;9.07;;;;;;;;;;5017569;28;20067;-83
2024/02/07 09:52:12;;;;;;;15.85;8.60;;;;;;;;;;5002191;28;20033;-81
2024/02/07 09:54:41;;;;;;;15.23;8.43;;;;;;;;;;5001096;28;20072;-81
2024/02/07 09:57:08;;;;;;;21.88;10.88;;;;;;;;;;5015064;28;20025;-81
2024/02/07 09:59:35;;;;;;;16.50;9.25;;;;;;;;;;5018158;28;20563;-82
2024/02/07 10:02:02;;;;;;;14.70;8.80;;;;;;;;;;5002544;28;20236;-83
2024/02/07 10:04:32;;;;;;;15.30;8.50;;;;;;;;;;4980081;28;20604;-83
2024/02/07 10:06:58;;;;;;;14.98;8.73;;;;;;;;;;5017504;28;20020;-82
2024/02/07 10:09:31;;;;;;;13.38;7.70;;;;;;;;;;5000305;28;20125;-81
2024/02/07 10:11:57;;;;;;;15.40;8.25;;;;;;;;;;4997471;28;20041;-85
2024/02/07 10:14:25;;;;;;;15.82;7.80;;;;;;;;;;5014573;28;20779;-84
2024/02/07 10:16:53;;;;;;;17.20;8.80;;;;;;;;;;4995825;28;20056;-85
2024/02/07 10:19:19;;;;;;;18.13;10.85;;;;;;;;;;5018511;28;20071;-85
2024/02/07 10:21:47;;;;;;;19.33;11.95;;;;;;;;;;5019374;28;20025;-83
2024/02/07 10:24:14;;;;;;;19.92;13.07;;;;;;;;;;5014136;28;20029;-74
2024/02/07 10:26:48;;;;;;;17.65;11.48;;;;;;;;;;5011869;28;20044;-85
2024/02/07 10:29:18;;;;;;;17.98;10.43;;;;;;;;;;5013164;28;20086;-74
2024/02/07 10:31:52;;;;;;;18.63;9.07;;;;;;;;;;4990499;28;20080;-84
2024/02/07 10:34:20;;;;;;;14.52;9.38;;;;;;;;;;5016023;28;20033;-82
2024/02/07 10:36:46;;;;;;;20.42;10.95;;;;;;;;;;5012487;28;20033;-81
2024/02/07 10:39:14;;;;;;;17.83;10.85;;;;;;;;;;4999975;28;20044;-81
2024/02/07 10:41:40;;;;;;;15.48;8.93;;;;;;;;;;4998688;28;20032;-82
2024/02/07 10:44:06;;;;;;;16.60;9.65;;;;;;;;;;5017834;28;20033;-82
2024/02/07 10:46:33;;;;;;;16.15;9.45;;;;;;;;;;5019178;28;20028;-81
2024/02/07 10:49:00;;;;;;;14.25;8.68;;;;;;;;;;5016215;28;20097;-83
2024/02/07 10:51:35;;;;;;;15.00;8.32;;;;;;;;;;4996600;28;20033;-74
2024/02/07 10:54:06;;;;;;;15.73;8.45;;;;;;;;;;5015796;28;20029;-74
2024/02/07 10:56:37;;;;;;;15.93;7.85;;;;;;;;;;5017451;28;20029;-74
2024/02/07 10:59:04;;;;;;;14.93;7.65;;;;;;;;;;4980762;28;20049;-74
2024/02/07 11:01:31;;;;;;;16.17;7.45;;;;;;;;;;5013901;28;20041;-73
2024/02/07 11:03:58;;;;;;;13.90;7.53;;;;;;;;;;5019059;28;20033;-76
2024/02/07 11:06:24;;;;;;;17.50;8.27;;;;;;;;;;5000277;28;20110;-74
2024/02/07 11:08:51;;;;;;;15.90;8.70;;;;;;;;;;4995404;28;20557;-75
2024/02/07 11:11:20;;;;;;;14.60;7.07;;;;;;;;;;4996346;28;20541;-75
2024/02/07 11:13:47;;;;;;;15.18;7.57;;;;;;;;;;4976038;28;20461;-75
2024/02/07 11:16:14;;;;;;;15.48;6.85;;;;;;;;;;4998919;28;20037;-76
2024/02/07 11:18:40;;;;;;;18.40;7.50;;;;;;;;;;4993384;28;20048;-75
2024/02/07 11:21:06;;;;;;;14.02;7.45;;;;;;;;;;5015089;28;20026;-74
2024/02/07 11:23:37;;;;;;;13.73;7.32;;;;;;;;;;5019396;28;20457;-75
2024/02/07 11:26:03;;;;;;;18.33;6.80;;;;;;;;;;5010737;28;20586;-75
2024/02/07 11:28:30;;;;;;;15.57;7.60;;;;;;;;;;5012512;28;20498;-75
2024/02/07 11:31:00;;;;;;;14.40;6.72;;;;;;;;;;5011971;28;20032;-76
2024/02/07 11:33:28;;;;;;;15.20;7.35;;;;;;;;;;4983234;28;20033;-75
2024/02/07 11:36:05;;;;;;;15.02;6.90;;;;;;;;;;5012754;28;20037;-75
2024/02/07 11:38:38;;;;;;;13.25;6.68;;;;;;;;;;5010816;28;20259;-75
2024/02/07 11:41:06;;;;;;;13.98;6.95;;;;;;;;;;4996517;28;20042;-75
2024/02/07 11:43:40;;;;;;;12.20;6.30;;;;;;;;;;5014724;28;20116;-74
2024/02/07 11:46:08;;;;;;;15.55;6.97;;;;;;;;;;4995715;28;20025;-74
2024/02/07 11:48:42;;;;;;;13.57;6.43;;;;;;;;;;5014250;28;20035;-74
2024/02/07 11:51:10;;;;;;;14.02;6.45;;;;;;;;;;5014903;28;20029;-75
2024/02/07 11:53:44;;;;;;;12.57;6.28;;;;;;;;;;5001691;28;20087;-73
2024/02/07 11:56:14;;;;;;;14.55;7.20;;;;;;;;;;5015713;28;20038;-75
2024/02/07 11:58:41;;;;;;;15.48;7.40;;;;;;;;;;4995547;28;20038;-75
2024/02/07 12:01:12;;;;;;;14.98;6.65;;;;;;;;;;5014808;28;20032;-74
2024/02/07 12:03:39;;;;;;;15.55;6.60;;;;;;;;;;4997116;28;20555;-74
2024/02/07 12:06:10;;;;;;;15.27;5.80;;;;;;;;;;5022625;28;20040;-74
2024/02/07 12:08:38;;;;;;;13.02;5.80;;;;;;;;;;4994306;28;20041;-75
2024/02/07 12:11:09;;;;;;;12.02;5.32;;;;;;;;;;5023135;28;20037;-75
2024/02/07 12:13:35;;;;;;;13.52;5.45;;;;;;;;;;4995002;28;20522;-74
2024/02/07 12:16:04;;;;;;;12.00;4.85;;;;;;;;;;4996692;28;20124;-75
2024/02/07 12:18:33;;;;;;;11.30;5.13;;;;;;;;;;5015414;28;20029;-75
2024/02/07 12:21:01;;;;;;;9.60;4.72;;;;;;;;;;4996210;28;20033;-75
2024/02/07 12:23:29;;;;;;;10.60;4.15;;;;;;;;;;5017445;28;20079;-74
2024/02/07 12:25:57;;;;;;;9.35;3.38;;;;;;;;;;4997145;28;20029;-74
2024/02/07 12:28:23;;;;;;;8.15;3.60;;;;;;;;;;4997755;28;20187;-74
2024/02/07 12:30:49;;;;;;;9.52;3.45;;;;;;;;;;4997750;28;20037;-74
2024/02/07 12:33:15;;;;;;;9.60;3.35;;;;;;;;;;5015452;28;20057;-75
2024/02/07 12:35:52;;;;;;;9.10;3.22;;;;;;;;;;4991470;28;20034;-75
2024/02/07 12:38:20;;;;;;;10.25;3.22;;;;;;;;;;5013555;28;20049;-74
2024/02/07 12:40:51;;;;;;;10.90;3.03;;;;;;;;;;5012593;28;20029;-76
2024/02/07 12:43:19;;;;;;;10.05;3.35;;;;;;;;;;5012652;28;20025;-74
2024/02/07 12:46:05;;;;;;;9.75;3.30;;;;;;;;;;5014192;28;20602;-75
2024/02/07 12:48:33;;;;;;;8.05;3.50;;;;;;;;;;5015805;28;20026;-74
2024/02/07 12:51:02;;;;;;;8.70;3.55;;;;;;;;;;5015211;28;20789;-74
2024/02/07 12:53:28;;;;;;;9.80;3.92;;;;;;;;;;5014599;28;20520;-74
2024/02/07 12:55:57;;;;;;;23.55;4.60;;;;;;;;;;4997128;28;20041;-74
2024/02/07 12:58:23;;;;;;;11.02;4.22;;;;;;;;;;4983087;28;20044;-74
2024/02/07 13:00:59;;;;;;;11.27;4.20;;;;;;;;;;5015441;28;20749;-75
2024/02/07 13:03:28;;;;;;;11.55;4.45;;;;;;;;;;4998874;28;20803;-74
2024/02/07 13:05:55;;;;;;;8.93;3.60;;;;;;;;;;5015335;28;20503;-75
2024/02/07 13:08:21;;;;;;;9.82;3.38;;;;;;;;;;5014072;28;20116;-74
2024/02/07 13:10:48;;;;;;;9.65;3.20;;;;;;;;;;5010158;28;20033;-74
2024/02/07 13:13:15;;;;;;;9.07;3.70;;;;;;;;;;5012911;28;20041;-75
2024/02/07 13:15:41;;;;;;;11.95;4.40;;;;;;;;;;4996501;28;20037;-74
2024/02/07 13:18:09;;;;;;;9.32;3.50;;;;;;;;;;5014732;28;20109;-74
2024/02/07 13:20:35;;;;;;;8.57;2.83;;;;;;;;;;5014470;28;20037;-74
2024/02/07 13:23:01;;;;;;;8.25;3.47;;;;;;;;;;4999128;28;20610;-75
2024/02/07 13:25:27;;;;;;;11.25;3.30;;;;;;;;;;5000174;28;20040;-74
2024/02/07 13:27:53;;;;;;;9.38;3.05;;;;;;;;;;4996182;28;20017;-75
2024/02/07 13:30:21;;;;;;;11.95;3.22;;;;;;;;;;5013192;28;20567;-75
2024/02/07 13:32:47;;;;;;;10.40;3.60;;;;;;;;;;5012074;28;20045;-75
2024/02/07 13:35:16;;;;;;;10.68;3.00;;;;;;;;;;5006689;28;20036;-75
2024/02/07 13:37:43;;;;;;;9.65;3.25;;;;;;;;;;4989722;28;20031;-74
2024/02/07 13:40:11;;;;;;;10.55;3.63;;;;;;;;;;4991265;28;20040;-75
2024/02/07 13:42:40;;;;;;;8.48;3.53;;;;;;;;;;5005745;28;20147;-74
2024/02/07 13:45:08;;;;;;;10.75;4.57;;;;;;;;;;4992288;28;20025;-73
2024/02/07 13:47:34;;;;;;;10.77;3.78;;;;;;;;;;4990005;28;20033;-74
2024/02/07 13:50:02;;;;;;;10.35;3.55;;;;;;;;;;5010991;28;20036;-74
2024/02/07 13:52:30;;;;;;;10.38;3.33;;;;;;;;;;5012588;28;20045;-74
2024/02/07 13:54:57;;;;;;;14.48;4.10;;;;;;;;;;5013678;28;20037;-75
2024/02/07 13:57:24;;;;;;;9.13;3.35;;;;;;;;;;4995174;28;20146;-74
2024/02/07 13:59:52;;;;;;;10.57;3.33;;;;;;;;;;4992229;28;21843;-75
2024/02/07 14:02:19;;;;;;;11.43;4.22;;;;;;;;;;5012395;28;20041;-77
2024/02/07 14:04:49;;;;;;;9.80;3.78;;;;;;;;;;4989771;28;20028;-76
2024/02/07 14:07:16;;;;;;;11.52;4.00;;;;;;;;;;4990980;28;20060;-76
2024/02/07 14:09:44;;;;;;;9.68;3.60;;;;;;;;;;5004778;28;20053;-75
2024/02/07 14:12:12;;;;;;;11.27;4.10;;;;;;;;;;4992432;28;20033;-76
2024/02/07 14:14:38;;;;;;;9.82;3.47;;;;;;;;;;5010750;28;20042;-75
2024/02/07 14:17:04;;;;;;;8.73;3.30;;;;;;;;;;5010369;28;20667;-75
2024/02/07 14:19:30;;;;;;;10.95;3.45;;;;;;;;;;5011093;28;20067;-75
2024/02/07 14:21:56;;;;;;;8.80;3.22;;;;;;;;;;4996434;28;20752;-75
2024/02/07 14:24:22;;;;;;;9.32;3.05;;;;;;;;;;5011026;28;20061;-75
2024/02/07 14:26:49;;;;;;;9.55;3.15;;;;;;;;;;5012675;28;20104;-75
2024/02/07 14:29:17;;;;;;;8.27;3.00;;;;;;;;;;5010690;28;20076;-75
2024/02/07 14:31:44;;;;;;;10.70;3.13;;;;;;;;;;5006990;28;20041;-75
2024/02/07 14:34:11;;;;;;;8.30;3.10;;;;;;;;;;4996463;28;20047;-74
2024/02/07 14:36:38;;;;;;;11.15;3.00;;;;;;;;;;5014149;28;20083;-75
2024/02/07 14:39:04;;;;;;;9.55;3.35;;;;;;;;;;4997168;28;20017;-74
2024/02/07 14:41:31;;;;;;;10.32;3.35;;;;;;;;;;5012397;28;20029;-75
2024/02/07 14:43:59;;;;;;;10.63;3.30;;;;;;;;;;4976988;28;20592;-74
2024/02/07 14:46:25;;;;;;;9.43;3.17;;;;;;;;;;4980150;28;20049;-74
2024/02/07 14:48:53;;;;;;;9.43;3.15;;;;;;;;;;4996835;28;20029;-74
2024/02/07 14:51:19;;;;;;;9.00;2.67;;;;;;;;;;5011043;28;20033;-74
2024/02/07 14:53:48;;;;;;;8.98;3.00;;;;;;;;;;4993063;28;20028;-74
2024/02/07 14:56:14;;;;;;;9.40;2.90;;;;;;;;;;4993773;28;20121;-74
2024/02/07 14:58:40;;;;;;;8.13;2.63;;;;;;;;;;4988855;28;20241;-74
2024/02/07 15:01:07;;;;;;;9.27;2.88;;;;;;;;;;4990733;28;20837;-74
2024/02/07 15:03:34;;;;;;;9.10;3.00;;;;;;;;;;5001346;28;20029;-74
2024/02/07 15:06:00;;;;;;;7.50;2.50;;;;;;;;;;4987028;28;20060;-74
2024/02/07 15:08:26;;;;;;;9.43;2.90;;;;;;;;;;5014613;28;20033;-74
2024/02/07 15:10:54;;;;;;;9.80;2.92;;;;;;;;;;4994184;28;20041;-74
2024/02/07 15:13:22;;;;;;;10.95;3.00;;;;;;;;;;5011533;28;20694;-75
2024/02/07 15:15:48;;;;;;;9.55;3.10;;;;;;;;;;5010189;28;20045;-75
2024/02/07 15:18:15;;;;;;;8.13;3.28;;;;;;;;;;5011236;28;20041;-74
2024/02/07 15:20:42;;;;;;;9.20;3.17;;;;;;;;;;4988495;28;20150;-75
2024/02/07 15:23:11;;;;;;;13.48;5.65;;;;;;;;;;5010075;28;20026;-74
2024/02/07 15:25:39;;;;;;;10.82;5.78;;;;;;;;;;5010238;28;20076;-75
2024/02/07 15:28:07;;;;;;;12.88;5.15;;;;;;;;;;5008757;28;20021;-75
2024/02/07 15:30:33;;;;;;;11.20;5.05;;;;;;;;;;4988803;28;20041;-75
2024/02/07 15:33:01;;;;;;;11.13;5.22;;;;;;;;;;4983346;28;20046;-74
2024/02/07 15:35:27;;;;;;;10.13;4.43;;;;;;;;;;4968166;28;20580;-76
2024/02/07 15:37:54;;;;;;;10.48;5.30;;;;;;;;;;4985199;28;20037;-73
2024/02/07 15:40:22;;;;;;;11.60;4.88;;;;;;;;;;4987442;28;20139;-74